createdAt,value
2022-10-05T00:01:54.892Z,10.30
2022-10-05T00:04:28.896Z,10.30
2022-10-05T00:06:58.100Z,10.30
2022-10-05T00:09:24.838Z,10.30
2022-10-05T00:11:51.929Z,10.20
2022-10-05T00:14:28.601Z,10.20
2022-10-05T00:16:56.765Z,10.20
2022-10-05T00:19:29.218Z,10.20
2022-10-05T00:22:01.649Z,10.20
2022-10-05T00:24:29.697Z,10.20
2022-10-05T00:26:58.251Z,10.20
2022-10-05T00:29:25.169Z,10.20
2022-10-05T00:31:52.048Z,10.20
2022-10-05T00:34:19.215Z,10.10
2022-10-05T00:36:46.156Z,10.10
2022-10-05T00:39:13.112Z,9.90
2022-10-05T00:42:08.705Z,9.80
2022-10-05T00:44:45.016Z,9.70
2022-10-05T00:47:26.574Z,9.70
2022-10-05T00:50:12.115Z,9.60
2022-10-05T00:52:46.636Z,9.50
2022-10-05T00:55:25.609Z,9.50
2022-10-05T00:58:35.292Z,9.40
2022-10-05T01:01:09.234Z,9.30
2022-10-05T01:03:44.905Z,9.30
2022-10-05T01:06:19.611Z,9.30
2022-10-05T01:09:17.435Z,9.30
2022-10-05T01:11:59.575Z,9.20
2022-10-05T01:14:44.804Z,9.10
2022-10-05T01:17:17.071Z,9.10
2022-10-05T01:19:58.510Z,9.00
2022-10-05T01:22:56.080Z,8.90
2022-10-05T01:25:40.912Z,8.90
2022-10-05T01:28:35.884Z,9.00
2022-10-05T01:31:09.662Z,8.90
2022-10-05T01:33:59.326Z,8.90
2022-10-05T01:36:46.987Z,8.90
2022-10-05T01:39:33.877Z,8.90
2022-10-05T01:42:11.426Z,9.00
2022-10-05T01:44:47.145Z,9.00
2022-10-05T01:47:37.000Z,9.00
2022-10-05T01:50:33.189Z,9.00
2022-10-05T01:53:08.056Z,9.10
2022-10-05T01:55:43.432Z,9.10
2022-10-05T01:58:22.406Z,9.10
2022-10-05T02:01:09.003Z,9.10
2022-10-05T02:03:49.212Z,9.00
2022-10-05T02:06:27.678Z,8.80
2022-10-05T02:09:04.310Z,8.80
2022-10-05T02:11:32.572Z,8.80
2022-10-05T02:14:10.690Z,8.80
2022-10-05T02:16:48.735Z,8.80
2022-10-05T02:19:24.479Z,8.90
2022-10-05T02:21:58.365Z,8.80
2022-10-05T02:24:32.325Z,8.70
2022-10-05T02:26:59.383Z,8.60
2022-10-05T02:29:30.267Z,8.70
2022-10-05T02:32:03.987Z,8.60
2022-10-05T02:34:41.579Z,8.50
2022-10-05T02:37:36.730Z,8.60
2022-10-05T02:40:38.367Z,8.60
2022-10-05T02:43:40.340Z,8.40
2022-10-05T02:46:26.116Z,8.30
2022-10-05T02:48:57.544Z,8.30
2022-10-05T02:51:33.930Z,8.10
2022-10-05T02:54:25.039Z,8.20
2022-10-05T02:57:05.139Z,8.10
2022-10-05T02:59:52.443Z,8.00
2022-10-05T03:02:23.824Z,8.00
2022-10-05T03:05:09.384Z,8.00
2022-10-05T03:07:55.066Z,8.00
2022-10-05T03:10:28.706Z,8.00
2022-10-05T03:13:14.237Z,8.00
2022-10-05T03:15:41.120Z,7.90
2022-10-05T03:18:21.820Z,7.90
2022-10-05T03:21:07.345Z,7.90
2022-10-05T03:24:06.425Z,7.90
2022-10-05T03:27:19.911Z,7.90
2022-10-05T03:30:03.175Z,7.80
2022-10-05T03:32:47.407Z,7.70
2022-10-05T03:35:17.175Z,7.70
2022-10-05T03:38:06.054Z,7.80
2022-10-05T03:40:44.465Z,7.80
2022-10-05T03:43:39.515Z,7.70
2022-10-05T03:46:13.959Z,7.70
2022-10-05T03:49:10.865Z,7.80
2022-10-05T03:51:45.051Z,7.80
2022-10-05T03:54:23.638Z,7.80
2022-10-05T03:56:55.529Z,7.80
2022-10-05T03:59:32.889Z,7.80
2022-10-05T04:02:32.351Z,7.90
2022-10-05T04:05:12.387Z,8.10
2022-10-05T04:08:03.895Z,8.30
2022-10-05T04:10:49.669Z,8.40
2022-10-05T04:13:22.507Z,8.50
2022-10-05T04:15:58.726Z,8.50
2022-10-05T04:18:35.924Z,8.60
2022-10-05T04:21:28.279Z,8.60
2022-10-05T04:24:20.721Z,8.50
2022-10-05T04:27:05.929Z,8.50
2022-10-05T04:29:45.977Z,8.40
2022-10-05T04:32:15.627Z,8.50
2022-10-05T04:34:51.706Z,8.50
2022-10-05T04:37:47.223Z,8.40
2022-10-05T04:40:42.819Z,8.30
2022-10-05T04:43:18.495Z,8.20
2022-10-05T04:45:45.847Z,8.10
2022-10-05T04:48:30.711Z,8.10
2022-10-05T04:51:14.631Z,8.00
2022-10-05T04:53:57.913Z,8.00
2022-10-05T04:57:09.663Z,7.90
2022-10-05T05:00:00.330Z,7.90
2022-10-05T05:02:52.657Z,7.90
2022-10-05T05:05:53.105Z,7.80
2022-10-05T05:08:37.426Z,7.80
2022-10-05T05:11:27.064Z,7.80
2022-10-05T05:14:22.652Z,7.70
2022-10-05T05:16:58.459Z,7.70
2022-10-05T05:20:13.663Z,7.70
2022-10-05T05:22:55.208Z,7.80
2022-10-05T05:25:55.290Z,7.80
2022-10-05T05:28:30.607Z,7.70
2022-10-05T05:31:39.870Z,7.70
2022-10-05T05:34:31.575Z,7.70
2022-10-05T05:37:01.339Z,7.70
2022-10-05T05:39:35.094Z,7.70
2022-10-05T05:42:40.583Z,7.70
2022-10-05T05:45:18.423Z,7.80
2022-10-05T05:47:54.788Z,7.90
2022-10-05T05:50:41.092Z,8.00
2022-10-05T05:53:29.746Z,8.10
2022-10-05T05:56:05.297Z,8.20
2022-10-05T05:58:38.610Z,8.20
2022-10-05T06:01:30.758Z,8.30
2022-10-05T06:04:05.130Z,8.40
2022-10-05T06:06:37.539Z,8.50
2022-10-05T06:09:14.560Z,8.60
2022-10-05T06:12:10.163Z,8.70
2022-10-05T06:15:25.402Z,8.90
2022-10-05T06:17:56.455Z,9.00
2022-10-05T06:20:30.333Z,9.10
2022-10-05T06:23:03.224Z,9.10
2022-10-05T06:25:53.361Z,9.20
2022-10-05T06:28:20.452Z,9.20
2022-10-05T06:31:17.530Z,9.20
2022-10-05T06:33:59.663Z,9.20
2022-10-05T06:36:49.752Z,9.20
2022-10-05T06:40:00.727Z,9.30
2022-10-05T06:42:36.384Z,9.40
2022-10-05T06:45:54.228Z,9.40
2022-10-05T06:48:47.400Z,9.50
2022-10-05T06:51:43.187Z,9.60
2022-10-05T06:54:53.409Z,9.70
2022-10-05T06:57:57.892Z,9.70
2022-10-05T07:00:31.871Z,9.80
2022-10-05T07:03:20.415Z,10.00
2022-10-05T07:06:06.299Z,10.10
2022-10-05T07:08:44.989Z,10.20
2022-10-05T07:11:29.674Z,10.40
2022-10-05T07:14:04.702Z,10.60
2022-10-05T07:16:40.952Z,10.80
2022-10-05T07:19:40.815Z,10.90
2022-10-05T07:22:35.344Z,11.10
2022-10-05T07:25:20.654Z,11.20
2022-10-05T07:27:57.317Z,11.40
2022-10-05T07:30:24.775Z,11.50
2022-10-05T07:33:01.195Z,11.60
2022-10-05T07:36:23.732Z,11.80
2022-10-05T07:39:11.344Z,11.90
2022-10-05T07:41:52.707Z,12.10
2022-10-05T07:44:27.331Z,12.30
2022-10-05T07:47:27.617Z,12.50
2022-10-05T07:50:11.819Z,12.50
2022-10-05T07:52:42.263Z,12.60
2022-10-05T07:55:32.080Z,12.90
2022-10-05T07:58:08.428Z,12.90
2022-10-05T08:00:59.542Z,13.10
2022-10-05T08:03:27.630Z,13.20
2022-10-05T08:05:54.980Z,13.30
2022-10-05T08:08:26.084Z,13.40
2022-10-05T08:11:12.360Z,13.60
2022-10-05T08:13:54.882Z,13.60
2022-10-05T08:16:26.461Z,13.80
2022-10-05T08:18:56.264Z,14.00
2022-10-05T08:21:33.599Z,14.00
2022-10-05T08:24:30.195Z,14.10
2022-10-05T08:27:20.365Z,14.20
2022-10-05T08:29:59.387Z,14.30
2022-10-05T08:32:31.374Z,14.50
2022-10-05T08:35:13.057Z,14.60
2022-10-05T08:37:41.433Z,14.60
2022-10-05T08:40:21.443Z,14.70
2022-10-05T08:43:06.430Z,14.80
2022-10-05T08:45:42.162Z,14.80
2022-10-05T08:48:38.476Z,14.80
2022-10-05T08:51:33.055Z,14.80
2022-10-05T08:54:19.759Z,14.90
2022-10-05T08:56:49.206Z,14.90
2022-10-05T08:59:35.950Z,14.90
2022-10-05T09:02:49.889Z,15.00
2022-10-05T09:05:28.540Z,15.10
2022-10-05T09:08:04.100Z,15.20
2022-10-05T09:11:09.819Z,15.30
2022-10-05T09:13:42.880Z,15.30
2022-10-05T09:16:40.768Z,15.30
2022-10-05T09:19:15.799Z,15.40
2022-10-05T09:22:19.718Z,15.40
2022-10-05T09:24:55.463Z,15.50
2022-10-05T09:27:42.815Z,15.50
2022-10-05T09:30:39.890Z,15.60
2022-10-05T09:33:38.638Z,15.70
2022-10-05T09:36:15.522Z,15.80
2022-10-05T09:39:16.080Z,15.80
2022-10-05T09:42:10.289Z,15.90
2022-10-05T09:45:21.688Z,16.00
2022-10-05T09:47:54.061Z,16.20
2022-10-05T09:50:55.555Z,16.20
2022-10-05T09:53:59.787Z,16.20
2022-10-05T09:57:03.558Z,16.20
2022-10-05T09:59:54.937Z,16.20
2022-10-05T10:02:44.630Z,16.30
2022-10-05T10:05:26.947Z,16.40
2022-10-05T10:08:20.179Z,16.40
2022-10-05T10:11:21.107Z,16.40
2022-10-05T10:14:02.820Z,16.60
2022-10-05T10:16:29.860Z,16.70
2022-10-05T10:19:16.481Z,16.80
2022-10-05T10:22:01.802Z,16.90
2022-10-05T10:24:53.095Z,17.00
2022-10-05T10:27:39.554Z,17.10
2022-10-05T10:30:42.370Z,17.30
2022-10-05T10:33:22.997Z,17.30
2022-10-05T10:36:08.449Z,17.40
2022-10-05T10:38:53.379Z,17.50
2022-10-05T10:41:58.874Z,17.50
2022-10-05T10:44:31.693Z,17.50
2022-10-05T10:47:17.375Z,17.60
2022-10-05T10:50:05.441Z,17.50
2022-10-05T10:52:57.927Z,17.60
2022-10-05T10:55:43.533Z,17.60
2022-10-05T10:58:42.115Z,17.70
2022-10-05T11:01:55.325Z,17.70
2022-10-05T11:04:40.570Z,17.80
2022-10-05T11:07:25.324Z,17.80
2022-10-05T11:10:09.578Z,17.90
2022-10-05T11:12:58.605Z,17.90
2022-10-05T11:15:47.036Z,18.10
2022-10-05T11:18:31.239Z,18.10
2022-10-05T11:21:26.083Z,18.20
2022-10-05T11:24:29.747Z,18.30
2022-10-05T11:27:33.872Z,18.30
2022-10-05T11:30:06.463Z,18.50
2022-10-05T11:32:56.135Z,18.60
2022-10-05T11:35:41.302Z,18.70
2022-10-05T11:38:20.446Z,18.80
2022-10-05T11:41:14.811Z,18.90
2022-10-05T11:44:13.681Z,19.00
2022-10-05T11:47:08.686Z,19.00
2022-10-05T11:49:57.538Z,19.10
2022-10-05T11:52:51.323Z,19.10
2022-10-05T11:55:29.526Z,19.20
2022-10-05T11:57:59.103Z,19.30
2022-10-05T12:00:32.808Z,19.50
2022-10-05T12:03:16.372Z,19.50
2022-10-05T12:06:25.591Z,19.50
2022-10-05T12:09:04.792Z,19.60
2022-10-05T12:11:57.639Z,19.70
2022-10-05T12:14:33.388Z,19.90
2022-10-05T12:17:11.310Z,20.00
2022-10-05T12:19:55.533Z,20.00
2022-10-05T12:22:31.023Z,20.10
2022-10-05T12:25:22.053Z,20.20
2022-10-05T12:27:53.653Z,20.40
2022-10-05T12:30:51.686Z,20.50
2022-10-05T12:33:25.473Z,20.50
2022-10-05T12:37:02.530Z,20.60
2022-10-05T12:39:53.285Z,20.60
2022-10-05T12:42:43.898Z,20.70
2022-10-05T12:45:22.711Z,20.80
2022-10-05T12:48:14.971Z,20.90
2022-10-05T12:50:48.735Z,20.80
2022-10-05T12:53:24.853Z,20.90
2022-10-05T12:56:09.792Z,20.90
2022-10-05T12:58:48.866Z,20.80
2022-10-05T13:01:31.559Z,20.90
2022-10-05T13:04:04.466Z,21.00
2022-10-05T13:07:07.504Z,21.00
2022-10-05T13:10:00.270Z,21.10
2022-10-05T13:12:41.431Z,21.00
2022-10-05T13:15:22.163Z,21.00
2022-10-05T13:18:01.282Z,21.00
2022-10-05T13:20:43.293Z,21.10
2022-10-05T13:23:34.841Z,21.10
2022-10-05T13:26:07.783Z,21.20
2022-10-05T13:28:52.366Z,21.30
2022-10-05T13:31:28.688Z,21.40
2022-10-05T13:34:25.113Z,21.40
2022-10-05T13:37:31.754Z,21.50
2022-10-05T13:40:13.083Z,21.50
2022-10-05T13:43:06.758Z,21.40
2022-10-05T13:45:52.568Z,21.40
2022-10-05T13:48:46.677Z,21.50
2022-10-05T13:51:27.780Z,21.50
2022-10-05T13:54:36.020Z,21.50
2022-10-05T13:57:29.930Z,21.50
2022-10-05T14:00:02.015Z,21.50
2022-10-05T14:02:43.286Z,21.60
2022-10-05T14:05:55.702Z,21.60
2022-10-05T14:08:27.270Z,21.60
2022-10-05T14:10:56.021Z,21.60
2022-10-05T14:13:44.327Z,21.60
2022-10-05T14:16:13.931Z,21.50
2022-10-05T14:18:57.345Z,21.50
2022-10-05T14:21:31.253Z,21.50
2022-10-05T14:24:32.104Z,21.40
2022-10-05T14:27:26.376Z,21.40
2022-10-05T14:30:13.918Z,21.40
2022-10-05T14:32:55.957Z,21.50
2022-10-05T14:35:25.957Z,21.40
2022-10-05T14:38:02.298Z,21.40
2022-10-05T14:41:18.774Z,21.40
2022-10-05T14:44:03.745Z,21.40
2022-10-05T14:46:32.769Z,21.30
2022-10-05T14:49:21.284Z,21.30
2022-10-05T14:51:49.665Z,21.40
2022-10-05T14:54:47.019Z,21.50
2022-10-05T14:57:30.726Z,21.50
2022-10-05T15:00:00.454Z,21.60
2022-10-05T15:02:36.264Z,21.60
2022-10-05T15:05:14.564Z,21.70
2022-10-05T15:07:48.851Z,21.70
2022-10-05T15:10:40.476Z,21.60
2022-10-05T15:13:18.425Z,21.50
2022-10-05T15:15:49.413Z,21.60
2022-10-05T15:18:32.191Z,21.50
2022-10-05T15:21:14.954Z,21.50
2022-10-05T15:23:48.838Z,21.30
2022-10-05T15:26:51.720Z,21.30
2022-10-05T15:29:42.414Z,21.30
2022-10-05T15:32:43.751Z,21.30
2022-10-05T15:35:45.329Z,21.30
2022-10-05T15:38:17.758Z,21.20
2022-10-05T15:40:59.152Z,21.20
2022-10-05T15:43:32.952Z,21.20
2022-10-05T15:46:08.643Z,21.00
2022-10-05T15:48:56.950Z,20.90
2022-10-05T15:51:34.448Z,20.90
2022-10-05T15:54:39.551Z,20.80
2022-10-05T15:57:21.354Z,20.80
2022-10-05T15:59:58.626Z,20.70
2022-10-05T16:02:33.088Z,20.60
2022-10-05T16:05:07.784Z,20.60
2022-10-05T16:08:01.755Z,20.60
2022-10-05T16:10:34.282Z,20.50
2022-10-05T16:13:04.898Z,20.40
2022-10-05T16:15:38.916Z,20.30
2022-10-05T16:18:31.198Z,20.20
2022-10-05T16:20:59.966Z,20.10
2022-10-05T16:23:49.031Z,20.00
2022-10-05T16:26:22.886Z,20.00
2022-10-05T16:29:24.701Z,19.90
2022-10-05T16:31:57.505Z,19.80
2022-10-05T16:34:49.348Z,19.70
2022-10-05T16:37:41.480Z,19.60
2022-10-05T16:40:17.148Z,19.50
2022-10-05T16:43:08.272Z,19.40
2022-10-05T16:45:52.918Z,19.30
2022-10-05T16:48:35.737Z,19.20
2022-10-05T16:51:34.094Z,19.10
2022-10-05T16:54:22.608Z,19.00
2022-10-05T16:56:59.714Z,18.80
2022-10-05T16:59:45.447Z,18.70
2022-10-05T17:02:30.869Z,18.50
2022-10-05T17:05:35.163Z,18.40
2022-10-05T17:08:30.331Z,18.30
2022-10-05T17:11:26.303Z,18.20
2022-10-05T17:14:16.751Z,18.10
2022-10-05T17:17:15.858Z,18.00
2022-10-05T17:20:19.225Z,17.90
2022-10-05T17:22:53.967Z,17.80
2022-10-05T17:25:24.126Z,17.70
2022-10-05T17:27:56.874Z,17.60
2022-10-05T17:30:48.472Z,17.60
2022-10-05T17:33:24.898Z,17.50
2022-10-05T17:35:55.627Z,17.40
2022-10-05T17:38:33.287Z,17.30
2022-10-05T17:41:00.093Z,17.30
2022-10-05T17:43:28.733Z,17.20
2022-10-05T17:46:03.971Z,17.10
2022-10-05T17:48:48.842Z,17.00
2022-10-05T17:51:49.132Z,16.80
2022-10-05T17:55:10.785Z,16.80
2022-10-05T17:57:39.649Z,16.70
2022-10-05T18:00:34.464Z,16.60
2022-10-05T18:03:40.937Z,16.50
2022-10-05T18:06:25.787Z,16.40
2022-10-05T18:09:16.212Z,16.40
2022-10-05T18:12:06.105Z,16.30
2022-10-05T18:15:02.987Z,16.20
2022-10-05T18:17:50.639Z,16.20
2022-10-05T18:20:26.946Z,16.20
2022-10-05T18:23:14.571Z,16.20
2022-10-05T18:26:04.806Z,16.20
2022-10-05T18:29:13.690Z,16.10
2022-10-05T18:31:59.442Z,16.10
2022-10-05T18:34:44.871Z,16.00
2022-10-05T18:37:50.197Z,16.00
2022-10-05T18:40:34.307Z,15.80
2022-10-05T18:43:22.180Z,15.80
2022-10-05T18:46:25.670Z,15.70
2022-10-05T18:49:10.537Z,15.50
2022-10-05T18:52:03.310Z,15.50
2022-10-05T18:54:57.481Z,15.40
2022-10-05T18:57:37.532Z,15.40
2022-10-05T19:00:21.226Z,15.40
2022-10-05T19:03:03.228Z,15.40
2022-10-05T19:05:52.063Z,15.30
2022-10-05T19:08:43.196Z,15.30
2022-10-05T19:11:36.321Z,15.20
2022-10-05T19:14:45.312Z,15.10
2022-10-05T19:17:39.934Z,15.00
2022-10-05T19:20:29.273Z,15.00
2022-10-05T19:23:02.130Z,14.80
2022-10-05T19:25:54.755Z,14.70
2022-10-05T19:29:04.380Z,14.70
2022-10-05T19:31:53.023Z,14.70
2022-10-05T19:34:32.778Z,14.70
2022-10-05T19:37:14.670Z,14.70
2022-10-05T19:39:47.079Z,14.70
2022-10-05T19:42:16.998Z,14.70
2022-10-05T19:44:47.676Z,14.60
2022-10-05T19:47:41.503Z,14.50
2022-10-05T19:50:23.630Z,14.40
2022-10-05T19:52:57.304Z,14.30
2022-10-05T19:55:43.523Z,14.20
2022-10-05T19:58:22.532Z,14.10
2022-10-05T20:01:01.453Z,14.00
2022-10-05T20:03:30.255Z,14.00
2022-10-05T20:05:59.318Z,13.90
2022-10-05T20:08:28.471Z,13.80
2022-10-05T20:11:15.116Z,13.90
2022-10-05T20:14:02.254Z,13.80
2022-10-05T20:16:49.710Z,13.80
2022-10-05T20:19:52.008Z,13.80
2022-10-05T20:22:35.041Z,13.80
2022-10-05T20:25:07.966Z,13.90
2022-10-05T20:27:44.036Z,13.80
2022-10-05T20:30:16.567Z,13.80
2022-10-05T20:32:45.216Z,13.80
2022-10-05T20:35:12.385Z,13.80
2022-10-05T20:37:40.231Z,13.90
2022-10-05T20:40:07.796Z,13.90
2022-10-05T20:42:34.788Z,13.90
2022-10-05T20:45:01.735Z,13.90
2022-10-05T20:47:28.504Z,13.90
2022-10-05T20:49:55.503Z,13.90
2022-10-05T20:52:23.228Z,13.90
2022-10-05T20:54:53.695Z,13.80
2022-10-05T20:57:21.256Z,13.80
2022-10-05T20:59:47.982Z,13.80
2022-10-05T21:02:14.669Z,13.80
2022-10-05T21:04:46.594Z,13.80
2022-10-05T21:07:15.377Z,13.70
2022-10-05T21:09:43.703Z,13.80
2022-10-05T21:12:11.083Z,13.70
2022-10-05T21:14:38.109Z,13.70
2022-10-05T21:17:06.708Z,13.70
2022-10-05T21:19:38.635Z,13.60
2022-10-05T21:22:07.914Z,13.60
2022-10-05T21:24:36.581Z,13.60
2022-10-05T21:27:04.333Z,13.60
2022-10-05T21:29:31.486Z,13.60
2022-10-05T21:31:58.399Z,13.50
2022-10-05T21:34:25.354Z,13.60
2022-10-05T21:36:52.308Z,13.50
2022-10-05T21:39:19.670Z,13.50
2022-10-05T21:41:48.714Z,13.50
2022-10-05T21:44:16.676Z,13.50
2022-10-05T21:46:43.726Z,13.50
2022-10-05T21:49:10.575Z,13.50
2022-10-05T21:51:38.723Z,13.50
2022-10-05T21:54:14.988Z,13.50
2022-10-05T21:56:46.818Z,13.50
2022-10-05T21:59:16.234Z,13.60
2022-10-05T22:01:42.927Z,13.60
2022-10-05T22:04:09.677Z,13.60
2022-10-05T22:06:36.937Z,13.60
2022-10-05T22:09:05.866Z,13.70
2022-10-05T22:11:35.267Z,13.70
2022-10-05T22:14:04.914Z,13.60
2022-10-05T22:16:36.485Z,13.60
2022-10-05T22:19:04.676Z,13.60
2022-10-05T22:21:34.340Z,13.60
2022-10-05T22:24:02.663Z,13.70
2022-10-05T22:26:29.867Z,13.70
2022-10-05T22:28:57.007Z,13.80
2022-10-05T22:31:24.415Z,13.90
2022-10-05T22:33:51.660Z,13.90
2022-10-05T22:36:19.010Z,14.10
2022-10-05T22:38:47.459Z,14.20
2022-10-05T22:41:16.426Z,14.20
2022-10-05T22:43:43.142Z,14.10
2022-10-05T22:46:12.010Z,14.20
2022-10-05T22:48:39.678Z,14.20
2022-10-05T22:51:07.113Z,14.10
2022-10-05T22:53:34.886Z,14.10
2022-10-05T22:56:06.770Z,14.10
2022-10-05T22:58:33.757Z,14.00
2022-10-05T23:01:06.071Z,13.90
2022-10-05T23:03:33.153Z,13.80
2022-10-05T23:06:03.521Z,13.70
2022-10-05T23:08:31.817Z,13.70
2022-10-05T23:11:11.549Z,13.70
2022-10-05T23:13:38.733Z,13.60
2022-10-05T23:16:11.190Z,13.50
2022-10-05T23:18:38.640Z,13.50
2022-10-05T23:21:07.780Z,13.40
2022-10-05T23:23:42.776Z,13.40
2022-10-05T23:26:11.432Z,13.30
2022-10-05T23:28:46.228Z,13.10
2022-10-05T23:31:15.863Z,13.00
2022-10-05T23:33:42.735Z,13.00
2022-10-05T23:36:16.992Z,12.80
2022-10-05T23:38:44.010Z,12.70
2022-10-05T23:41:10.837Z,12.60
2022-10-05T23:43:37.977Z,12.60
2022-10-05T23:46:06.783Z,12.60
2022-10-05T23:48:33.946Z,12.50
2022-10-05T23:51:00.790Z,12.50
2022-10-05T23:53:27.572Z,12.50
2022-10-05T23:55:54.963Z,12.50
2022-10-05T23:58:22.836Z,12.50
